sensor_id;sensor_type;location;lat;lon;timestamp;P1;durP1;ratioP1;P2;durP2;ratioP2
25435;SDS011;13363;52.772;-3.890;2023-04-03T00:01:35;4.03;;;3.27;;
25435;SDS011;13363;52.772;-3.890;2023-04-03T00:04:03;5.20;;;3.47;;
25435;SDS011;13363;52.772;-3.890;2023-04-03T00:06:32;3.57;;;3.37;;
25435;SDS011;13363;52.772;-3.890;2023-04-03T00:08:57;5.53;;;3.17;;
25435;SDS011;13363;52.772;-3.890;2023-04-03T00:11:23;3.90;;;3.60;;
25435;SDS011;13363;52.772;-3.890;2023-04-03T00:13:50;3.73;;;3.43;;
25435;SDS011;13363;52.772;-3.890;2023-04-03T00:16:16;6.97;;;3.40;;
25435;SDS011;13363;52.772;-3.890;2023-04-03T00:18:42;3.63;;;3.37;;
25435;SDS011;13363;52.772;-3.890;2023-04-03T00:21:09;6.67;;;3.60;;
25435;SDS011;13363;52.772;-3.890;2023-04-03T00:23:37;6.73;;;3.50;;
25435;SDS011;13363;52.772;-3.890;2023-04-03T00:26:02;3.63;;;3.30;;
25435;SDS011;13363;52.772;-3.890;2023-04-03T00:28:28;4.33;;;3.23;;
25435;SDS011;13363;52.772;-3.890;2023-04-03T00:30:54;6.10;;;3.43;;
25435;SDS011;13363;52.772;-3.890;2023-04-03T00:33:19;4.70;;;3.60;;
25435;SDS011;13363;52.772;-3.890;2023-04-03T00:35:47;4.23;;;3.30;;
25435;SDS011;13363;52.772;-3.890;2023-04-03T00:38:13;4.23;;;3.27;;
25435;SDS011;13363;52.772;-3.890;2023-04-03T00:40:42;3.47;;;3.17;;
25435;SDS011;13363;52.772;-3.890;2023-04-03T00:43:11;3.73;;;3.13;;
25435;SDS011;13363;52.772;-3.890;2023-04-03T00:45:42;3.73;;;3.40;;
25435;SDS011;13363;52.772;-3.890;2023-04-03T00:48:11;4.33;;;3.00;;
25435;SDS011;13363;52.772;-3.890;2023-04-03T00:50:43;5.97;;;4.00;;
25435;SDS011;13363;52.772;-3.890;2023-04-03T00:53:17;3.10;;;2.77;;
25435;SDS011;13363;52.772;-3.890;2023-04-03T00:55:48;3.80;;;3.30;;
25435;SDS011;13363;52.772;-3.890;2023-04-03T00:58:16;2.80;;;2.60;;
25435;SDS011;13363;52.772;-3.890;2023-04-03T01:00:46;3.43;;;2.90;;
25435;SDS011;13363;52.772;-3.890;2023-04-03T01:03:21;4.40;;;3.23;;
25435;SDS011;13363;52.772;-3.890;2023-04-03T01:05:46;4.33;;;3.10;;
25435;SDS011;13363;52.772;-3.890;2023-04-03T01:08:12;3.57;;;3.17;;
25435;SDS011;13363;52.772;-3.890;2023-04-03T01:10:38;4.23;;;3.33;;
25435;SDS011;13363;52.772;-3.890;2023-04-03T01:13:17;3.77;;;3.30;;
25435;SDS011;13363;52.772;-3.890;2023-04-03T01:15:45;3.40;;;3.10;;
25435;SDS011;13363;52.772;-3.890;2023-04-03T01:18:10;3.13;;;2.83;;
25435;SDS011;13363;52.772;-3.890;2023-04-03T01:26:24;8.80;;;4.13;;
25435;SDS011;13363;52.772;-3.890;2023-04-03T01:28:51;3.13;;;2.90;;
25435;SDS011;13363;52.772;-3.890;2023-04-03T01:31:40;5.03;;;3.00;;
25435;SDS011;13363;52.772;-3.890;2023-04-03T01:34:32;5.77;;;3.30;;
25435;SDS011;13363;52.772;-3.890;2023-04-03T01:36:58;5.37;;;3.10;;
25435;SDS011;13363;52.772;-3.890;2023-04-03T01:39:24;3.53;;;3.20;;
25435;SDS011;13363;52.772;-3.890;2023-04-03T01:41:50;4.93;;;3.07;;
25435;SDS011;13363;52.772;-3.890;2023-04-03T01:44:15;4.80;;;2.73;;
25435;SDS011;13363;52.772;-3.890;2023-04-03T01:46:41;3.27;;;3.07;;
25435;SDS011;13363;52.772;-3.890;2023-04-03T01:49:07;2.83;;;2.63;;
25435;SDS011;13363;52.772;-3.890;2023-04-03T01:51:33;5.13;;;2.93;;
25435;SDS011;13363;52.772;-3.890;2023-04-03T01:54:00;4.73;;;3.20;;
25435;SDS011;13363;52.772;-3.890;2023-04-03T01:56:25;6.00;;;3.43;;
25435;SDS011;13363;52.772;-3.890;2023-04-03T01:58:51;5.10;;;3.30;;
25435;SDS011;13363;52.772;-3.890;2023-04-03T02:01:17;4.80;;;3.23;;
25435;SDS011;13363;52.772;-3.890;2023-04-03T02:03:43;8.30;;;3.43;;
25435;SDS011;13363;52.772;-3.890;2023-04-03T02:06:08;5.00;;;2.87;;
25435;SDS011;13363;52.772;-3.890;2023-04-03T02:08:34;4.50;;;3.47;;
25435;SDS011;13363;52.772;-3.890;2023-04-03T02:11:00;4.60;;;3.00;;
25435;SDS011;13363;52.772;-3.890;2023-04-03T02:13:26;5.97;;;3.33;;
25435;SDS011;13363;52.772;-3.890;2023-04-03T02:15:51;8.37;;;4.07;;
25435;SDS011;13363;52.772;-3.890;2023-04-03T02:18:17;3.37;;;2.90;;
25435;SDS011;13363;52.772;-3.890;2023-04-03T02:20:43;4.87;;;3.03;;
25435;SDS011;13363;52.772;-3.890;2023-04-03T02:23:09;7.00;;;3.40;;
25435;SDS011;13363;52.772;-3.890;2023-04-03T02:25:34;6.00;;;2.97;;
25435;SDS011;13363;52.772;-3.890;2023-04-03T02:28:00;3.53;;;3.20;;
25435;SDS011;13363;52.772;-3.890;2023-04-03T02:30:26;2.63;;;2.43;;
25435;SDS011;13363;52.772;-3.890;2023-04-03T02:32:52;8.47;;;2.97;;
25435;SDS011;13363;52.772;-3.890;2023-04-03T02:35:18;2.80;;;2.60;;
25435;SDS011;13363;52.772;-3.890;2023-04-03T02:37:43;7.00;;;2.90;;
25435;SDS011;13363;52.772;-3.890;2023-04-03T02:40:09;2.60;;;2.50;;
25435;SDS011;13363;52.772;-3.890;2023-04-03T02:42:36;2.63;;;2.43;;
25435;SDS011;13363;52.772;-3.890;2023-04-03T02:45:02;4.13;;;2.80;;
25435;SDS011;13363;52.772;-3.890;2023-04-03T02:47:28;4.50;;;2.80;;
25435;SDS011;13363;52.772;-3.890;2023-04-03T02:49:54;5.73;;;2.60;;
25435;SDS011;13363;52.772;-3.890;2023-04-03T02:52:20;4.77;;;2.80;;
25435;SDS011;13363;52.772;-3.890;2023-04-03T02:54:46;3.93;;;2.70;;
25435;SDS011;13363;52.772;-3.890;2023-04-03T02:57:11;3.00;;;2.57;;
25435;SDS011;13363;52.772;-3.890;2023-04-03T02:59:37;3.53;;;3.00;;
25435;SDS011;13363;52.772;-3.890;2023-04-03T03:02:09;6.80;;;2.67;;
25435;SDS011;13363;52.772;-3.890;2023-04-03T03:04:35;5.07;;;3.13;;
25435;SDS011;13363;52.772;-3.890;2023-04-03T03:07:01;5.77;;;2.70;;
25435;SDS011;13363;52.772;-3.890;2023-04-03T03:09:27;3.60;;;2.50;;
25435;SDS011;13363;52.772;-3.890;2023-04-03T03:11:54;6.13;;;3.00;;
25435;SDS011;13363;52.772;-3.890;2023-04-03T03:14:20;4.60;;;2.93;;
25435;SDS011;13363;52.772;-3.890;2023-04-03T03:16:46;3.77;;;2.77;;
25435;SDS011;13363;52.772;-3.890;2023-04-03T03:19:11;3.30;;;2.63;;
25435;SDS011;13363;52.772;-3.890;2023-04-03T03:21:37;3.93;;;2.90;;
25435;SDS011;13363;52.772;-3.890;2023-04-03T03:24:03;5.23;;;2.53;;
25435;SDS011;13363;52.772;-3.890;2023-04-03T03:26:28;4.27;;;2.80;;
25435;SDS011;13363;52.772;-3.890;2023-04-03T03:28:54;2.83;;;2.47;;
25435;SDS011;13363;52.772;-3.890;2023-04-03T03:31:20;2.70;;;2.50;;
25435;SDS011;13363;52.772;-3.890;2023-04-03T03:33:46;6.90;;;2.67;;
25435;SDS011;13363;52.772;-3.890;2023-04-03T03:36:11;5.60;;;3.00;;
25435;SDS011;13363;52.772;-3.890;2023-04-03T03:38:37;3.57;;;2.57;;
25435;SDS011;13363;52.772;-3.890;2023-04-03T03:41:03;3.50;;;2.93;;
25435;SDS011;13363;52.772;-3.890;2023-04-03T03:43:28;4.63;;;2.57;;
25435;SDS011;13363;52.772;-3.890;2023-04-03T03:45:54;3.97;;;2.83;;
25435;SDS011;13363;52.772;-3.890;2023-04-03T03:48:20;6.47;;;2.77;;
25435;SDS011;13363;52.772;-3.890;2023-04-03T03:50:47;4.53;;;3.30;;
25435;SDS011;13363;52.772;-3.890;2023-04-03T03:53:13;2.80;;;2.60;;
25435;SDS011;13363;52.772;-3.890;2023-04-03T03:55:38;3.67;;;2.67;;
25435;SDS011;13363;52.772;-3.890;2023-04-03T03:58:04;4.33;;;3.10;;
25435;SDS011;13363;52.772;-3.890;2023-04-03T04:00:30;3.90;;;2.53;;
25435;SDS011;13363;52.772;-3.890;2023-04-03T04:02:56;5.03;;;3.23;;
25435;SDS011;13363;52.772;-3.890;2023-04-03T04:05:22;4.20;;;2.87;;
25435;SDS011;13363;52.772;-3.890;2023-04-03T04:07:47;6.67;;;2.63;;
25435;SDS011;13363;52.772;-3.890;2023-04-03T04:10:13;2.73;;;2.53;;
25435;SDS011;13363;52.772;-3.890;2023-04-03T04:12:39;3.53;;;2.67;;
25435;SDS011;13363;52.772;-3.890;2023-04-03T04:15:05;3.30;;;2.73;;
25435;SDS011;13363;52.772;-3.890;2023-04-03T04:17:31;2.63;;;2.43;;
25435;SDS011;13363;52.772;-3.890;2023-04-03T04:19:57;5.33;;;2.83;;
25435;SDS011;13363;52.772;-3.890;2023-04-03T04:22:23;3.23;;;2.60;;
25435;SDS011;13363;52.772;-3.890;2023-04-03T04:24:48;5.33;;;2.43;;
25435;SDS011;13363;52.772;-3.890;2023-04-03T04:27:14;2.60;;;2.40;;
25435;SDS011;13363;52.772;-3.890;2023-04-03T04:29:41;11.83;;;4.07;;
25435;SDS011;13363;52.772;-3.890;2023-04-03T04:32:06;2.93;;;2.70;;
25435;SDS011;13363;52.772;-3.890;2023-04-03T04:34:32;2.97;;;2.77;;
25435;SDS011;13363;52.772;-3.890;2023-04-03T04:36:58;2.50;;;2.30;;
25435;SDS011;13363;52.772;-3.890;2023-04-03T04:39:23;7.13;;;3.27;;
25435;SDS011;13363;52.772;-3.890;2023-04-03T04:41:49;2.80;;;2.50;;
25435;SDS011;13363;52.772;-3.890;2023-04-03T04:44:15;4.47;;;2.60;;
25435;SDS011;13363;52.772;-3.890;2023-04-03T04:46:41;3.13;;;2.67;;
25435;SDS011;13363;52.772;-3.890;2023-04-03T04:49:06;2.53;;;2.33;;
25435;SDS011;13363;52.772;-3.890;2023-04-03T04:51:32;2.90;;;2.30;;
25435;SDS011;13363;52.772;-3.890;2023-04-03T04:53:57;3.70;;;2.33;;
25435;SDS011;13363;52.772;-3.890;2023-04-03T04:56:23;4.67;;;2.30;;
25435;SDS011;13363;52.772;-3.890;2023-04-03T04:58:50;2.70;;;2.50;;
25435;SDS011;13363;52.772;-3.890;2023-04-03T05:01:16;4.27;;;2.50;;
25435;SDS011;13363;52.772;-3.890;2023-04-03T05:03:41;5.43;;;2.67;;
25435;SDS011;13363;52.772;-3.890;2023-04-03T05:06:07;4.03;;;2.90;;
25435;SDS011;13363;52.772;-3.890;2023-04-03T05:08:33;2.77;;;2.57;;
25435;SDS011;13363;52.772;-3.890;2023-04-03T05:10:58;4.40;;;2.37;;
25435;SDS011;13363;52.772;-3.890;2023-04-03T05:13:24;4.50;;;2.43;;
25435;SDS011;13363;52.772;-3.890;2023-04-03T05:15:50;2.43;;;2.13;;
25435;SDS011;13363;52.772;-3.890;2023-04-03T05:18:15;4.20;;;2.43;;
25435;SDS011;13363;52.772;-3.890;2023-04-03T05:20:41;3.90;;;2.20;;
25435;SDS011;13363;52.772;-3.890;2023-04-03T05:23:08;2.97;;;2.33;;
25435;SDS011;13363;52.772;-3.890;2023-04-03T05:25:36;4.70;;;2.07;;
25435;SDS011;13363;52.772;-3.890;2023-04-03T05:28:03;3.20;;;2.37;;
25435;SDS011;13363;52.772;-3.890;2023-04-03T05:30:28;2.30;;;2.10;;
25435;SDS011;13363;52.772;-3.890;2023-04-03T05:32:54;4.67;;;2.80;;
25435;SDS011;13363;52.772;-3.890;2023-04-03T05:35:20;2.80;;;1.73;;
25435;SDS011;13363;52.772;-3.890;2023-04-03T05:37:46;2.40;;;2.20;;
25435;SDS011;13363;52.772;-3.890;2023-04-03T05:40:12;2.50;;;2.10;;
25435;SDS011;13363;52.772;-3.890;2023-04-03T05:42:37;5.77;;;2.57;;
25435;SDS011;13363;52.772;-3.890;2023-04-03T05:45:03;2.57;;;2.33;;
25435;SDS011;13363;52.772;-3.890;2023-04-03T05:47:29;3.97;;;2.80;;
25435;SDS011;13363;52.772;-3.890;2023-04-03T05:49:55;5.47;;;2.53;;
25435;SDS011;13363;52.772;-3.890;2023-04-03T05:52:28;2.40;;;2.20;;
25435;SDS011;13363;52.772;-3.890;2023-04-03T05:54:57;2.90;;;2.23;;
25435;SDS011;13363;52.772;-3.890;2023-04-03T05:57:23;2.70;;;2.50;;
25435;SDS011;13363;52.772;-3.890;2023-04-03T05:59:49;2.70;;;2.50;;
25435;SDS011;13363;52.772;-3.890;2023-04-03T06:02:19;5.47;;;2.00;;
25435;SDS011;13363;52.772;-3.890;2023-04-03T06:04:46;5.53;;;2.50;;
25435;SDS011;13363;52.772;-3.890;2023-04-03T06:07:20;2.10;;;2.00;;
25435;SDS011;13363;52.772;-3.890;2023-04-03T06:09:47;5.23;;;2.30;;
25435;SDS011;13363;52.772;-3.890;2023-04-03T06:12:14;3.23;;;2.20;;
25435;SDS011;13363;52.772;-3.890;2023-04-03T06:14:40;2.60;;;2.37;;
25435;SDS011;13363;52.772;-3.890;2023-04-03T06:17:06;2.03;;;1.77;;
25435;SDS011;13363;52.772;-3.890;2023-04-03T06:19:33;4.03;;;2.70;;
25435;SDS011;13363;52.772;-3.890;2023-04-03T06:21:59;3.80;;;2.20;;
25435;SDS011;13363;52.772;-3.890;2023-04-03T06:24:25;3.47;;;2.20;;
25435;SDS011;13363;52.772;-3.890;2023-04-03T06:26:51;2.23;;;2.10;;
25435;SDS011;13363;52.772;-3.890;2023-04-03T06:29:17;2.17;;;2.07;;
25435;SDS011;13363;52.772;-3.890;2023-04-03T06:31:44;2.60;;;2.40;;
25435;SDS011;13363;52.772;-3.890;2023-04-03T06:34:11;3.10;;;1.90;;
25435;SDS011;13363;52.772;-3.890;2023-04-03T06:36:37;6.80;;;2.03;;
25435;SDS011;13363;52.772;-3.890;2023-04-03T06:39:04;6.97;;;2.80;;
25435;SDS011;13363;52.772;-3.890;2023-04-03T06:41:30;2.60;;;2.30;;
25435;SDS011;13363;52.772;-3.890;2023-04-03T06:43:56;2.30;;;2.17;;
25435;SDS011;13363;52.772;-3.890;2023-04-03T06:46:23;2.10;;;1.90;;
25435;SDS011;13363;52.772;-3.890;2023-04-03T06:48:50;3.37;;;2.03;;
25435;SDS011;13363;52.772;-3.890;2023-04-03T06:51:23;2.67;;;2.43;;
25435;SDS011;13363;52.772;-3.890;2023-04-03T06:53:51;2.70;;;2.10;;
25435;SDS011;13363;52.772;-3.890;2023-04-03T06:56:18;3.60;;;1.80;;
25435;SDS011;13363;52.772;-3.890;2023-04-03T06:58:44;4.00;;;2.00;;
25435;SDS011;13363;52.772;-3.890;2023-04-03T07:01:11;2.27;;;2.07;;
25435;SDS011;13363;52.772;-3.890;2023-04-03T07:03:38;6.33;;;2.40;;
25435;SDS011;13363;52.772;-3.890;2023-04-03T07:06:04;2.20;;;2.00;;
25435;SDS011;13363;52.772;-3.890;2023-04-03T07:08:32;3.70;;;1.60;;
25435;SDS011;13363;52.772;-3.890;2023-04-03T07:10:58;5.40;;;1.93;;
25435;SDS011;13363;52.772;-3.890;2023-04-03T07:13:24;4.63;;;1.90;;
25435;SDS011;13363;52.772;-3.890;2023-04-03T07:15:50;2.87;;;2.30;;
25435;SDS011;13363;52.772;-3.890;2023-04-03T07:18:16;2.30;;;1.60;;
25435;SDS011;13363;52.772;-3.890;2023-04-03T07:20:42;2.43;;;1.97;;
25435;SDS011;13363;52.772;-3.890;2023-04-03T07:23:08;2.57;;;2.07;;
25435;SDS011;13363;52.772;-3.890;2023-04-03T07:25:34;8.47;;;2.27;;
25435;SDS011;13363;52.772;-3.890;2023-04-03T07:28:00;3.80;;;1.90;;
25435;SDS011;13363;52.772;-3.890;2023-04-03T07:30:25;2.93;;;1.67;;
25435;SDS011;13363;52.772;-3.890;2023-04-03T07:32:51;2.03;;;1.53;;
25435;SDS011;13363;52.772;-3.890;2023-04-03T07:35:17;4.10;;;1.70;;
25435;SDS011;13363;52.772;-3.890;2023-04-03T07:37:43;3.13;;;1.70;;
25435;SDS011;13363;52.772;-3.890;2023-04-03T07:40:09;2.07;;;1.77;;
25435;SDS011;13363;52.772;-3.890;2023-04-03T07:42:35;1.87;;;1.50;;
25435;SDS011;13363;52.772;-3.890;2023-04-03T07:45:02;3.40;;;1.53;;
25435;SDS011;13363;52.772;-3.890;2023-04-03T07:47:29;1.43;;;1.33;;
25435;SDS011;13363;52.772;-3.890;2023-04-03T07:49:56;2.90;;;1.73;;
25435;SDS011;13363;52.772;-3.890;2023-04-03T07:52:23;5.30;;;2.00;;
25435;SDS011;13363;52.772;-3.890;2023-04-03T07:54:49;2.77;;;1.50;;
25435;SDS011;13363;52.772;-3.890;2023-04-03T07:57:14;4.63;;;1.80;;
25435;SDS011;13363;52.772;-3.890;2023-04-03T07:59:41;3.47;;;1.60;;
25435;SDS011;13363;52.772;-3.890;2023-04-03T08:02:12;4.10;;;1.95;;
25435;SDS011;13363;52.772;-3.890;2023-04-03T08:04:38;3.70;;;2.03;;
25435;SDS011;13363;52.772;-3.890;2023-04-03T08:07:04;3.38;;;1.60;;
25435;SDS011;13363;52.772;-3.890;2023-04-03T08:09:30;3.15;;;1.80;;
25435;SDS011;13363;52.772;-3.890;2023-04-03T08:11:56;3.47;;;1.83;;
25435;SDS011;13363;52.772;-3.890;2023-04-03T08:14:23;6.15;;;2.15;;
25435;SDS011;13363;52.772;-3.890;2023-04-03T08:16:48;4.50;;;1.67;;
25435;SDS011;13363;52.772;-3.890;2023-04-03T08:19:14;2.22;;;1.67;;
25435;SDS011;13363;52.772;-3.890;2023-04-03T08:21:43;3.03;;;1.90;;
25435;SDS011;13363;52.772;-3.890;2023-04-03T08:24:10;2.38;;;1.90;;
25435;SDS011;13363;52.772;-3.890;2023-04-03T08:26:36;2.38;;;1.85;;
25435;SDS011;13363;52.772;-3.890;2023-04-03T08:29:02;2.47;;;1.63;;
25435;SDS011;13363;52.772;-3.890;2023-04-03T08:31:28;1.73;;;1.52;;
25435;SDS011;13363;52.772;-3.890;2023-04-03T08:33:54;2.08;;;1.60;;
25435;SDS011;13363;52.772;-3.890;2023-04-03T08:36:25;3.97;;;2.05;;
25435;SDS011;13363;52.772;-3.890;2023-04-03T08:38:52;1.85;;;1.67;;
25435;SDS011;13363;52.772;-3.890;2023-04-03T08:41:29;3.20;;;1.90;;
25435;SDS011;13363;52.772;-3.890;2023-04-03T08:47:01;2.97;;;1.67;;
25435;SDS011;13363;52.772;-3.890;2023-04-03T08:49:39;2.33;;;1.63;;
25435;SDS011;13363;52.772;-3.890;2023-04-03T08:52:11;2.30;;;1.75;;
25435;SDS011;13363;52.772;-3.890;2023-04-03T08:54:53;2.53;;;1.90;;
25435;SDS011;13363;52.772;-3.890;2023-04-03T08:57:29;3.10;;;1.67;;
25435;SDS011;13363;52.772;-3.890;2023-04-03T09:00:05;5.55;;;1.98;;
25435;SDS011;13363;52.772;-3.890;2023-04-03T09:02:49;2.70;;;2.17;;
25435;SDS011;13363;52.772;-3.890;2023-04-03T09:05:19;5.97;;;2.40;;
25435;SDS011;13363;52.772;-3.890;2023-04-03T09:08:14;3.20;;;1.80;;
25435;SDS011;13363;52.772;-3.890;2023-04-03T09:13:59;2.43;;;2.03;;
25435;SDS011;13363;52.772;-3.890;2023-04-03T09:22:46;4.73;;;2.00;;
25435;SDS011;13363;52.772;-3.890;2023-04-03T09:24:54;1.60;;;1.20;;
25435;SDS011;13363;52.772;-3.890;2023-04-03T09:27:27;3.53;;;1.40;;
25435;SDS011;13363;52.772;-3.890;2023-04-03T09:29:54;1.47;;;1.20;;
25435;SDS011;13363;52.772;-3.890;2023-04-03T09:34:51;1.70;;;1.60;;
25435;SDS011;13363;52.772;-3.890;2023-04-03T09:37:36;4.47;;;2.17;;
25435;SDS011;13363;52.772;-3.890;2023-04-03T09:42:55;2.07;;;1.67;;
25435;SDS011;13363;52.772;-3.890;2023-04-03T09:45:30;4.27;;;2.03;;
25435;SDS011;13363;52.772;-3.890;2023-04-03T09:48:08;2.47;;;2.03;;
25435;SDS011;13363;52.772;-3.890;2023-04-03T09:50:38;2.70;;;2.47;;
25435;SDS011;13363;52.772;-3.890;2023-04-03T09:56:21;3.17;;;1.30;;
25435;SDS011;13363;52.772;-3.890;2023-04-03T10:01:30;3.20;;;2.00;;
25435;SDS011;13363;52.772;-3.890;2023-04-03T10:04:18;3.10;;;1.90;;
25435;SDS011;13363;52.772;-3.890;2023-04-03T10:06:52;2.03;;;1.87;;
25435;SDS011;13363;52.772;-3.890;2023-04-03T10:09:21;2.43;;;1.70;;
25435;SDS011;13363;52.772;-3.890;2023-04-03T10:12:02;5.77;;;1.70;;
25435;SDS011;13363;52.772;-3.890;2023-04-03T10:14:36;3.07;;;1.70;;
25435;SDS011;13363;52.772;-3.890;2023-04-03T10:17:25;2.53;;;1.57;;
25435;SDS011;13363;52.772;-3.890;2023-04-03T10:20:13;2.27;;;1.70;;
25435;SDS011;13363;52.772;-3.890;2023-04-03T10:28:47;4.17;;;1.70;;
25435;SDS011;13363;52.772;-3.890;2023-04-03T10:34:29;2.37;;;1.50;;
25435;SDS011;13363;52.772;-3.890;2023-04-03T10:42:54;4.73;;;1.67;;
25435;SDS011;13363;52.772;-3.890;2023-04-03T10:54:09;1.20;;;1.13;;
25435;SDS011;13363;52.772;-3.890;2023-04-03T10:56:42;5.57;;;1.60;;
25435;SDS011;13363;52.772;-3.890;2023-04-03T11:01:39;2.50;;;1.43;;
25435;SDS011;13363;52.772;-3.890;2023-04-03T11:04:09;2.43;;;1.23;;
25435;SDS011;13363;52.772;-3.890;2023-04-03T11:06:37;2.77;;;1.73;;
25435;SDS011;13363;52.772;-3.890;2023-04-03T11:09:15;1.87;;;1.47;;
25435;SDS011;13363;52.772;-3.890;2023-04-03T11:12:24;3.70;;;1.80;;
25435;SDS011;13363;52.772;-3.890;2023-04-03T11:14:55;2.73;;;1.27;;
25435;SDS011;13363;52.772;-3.890;2023-04-03T11:17:25;3.23;;;1.07;;
25435;SDS011;13363;52.772;-3.890;2023-04-03T11:20:06;1.37;;;1.03;;
25435;SDS011;13363;52.772;-3.890;2023-04-03T11:22:43;1.97;;;1.30;;
25435;SDS011;13363;52.772;-3.890;2023-04-03T11:25:15;0.93;;;0.90;;
25435;SDS011;13363;52.772;-3.890;2023-04-03T11:30:28;3.87;;;1.10;;
25435;SDS011;13363;52.772;-3.890;2023-04-03T11:36:08;2.23;;;1.30;;
25435;SDS011;13363;52.772;-3.890;2023-04-03T11:38:43;2.27;;;1.30;;
25435;SDS011;13363;52.772;-3.890;2023-04-03T11:41:11;2.60;;;1.20;;
25435;SDS011;13363;52.772;-3.890;2023-04-03T11:43:42;2.67;;;1.33;;
25435;SDS011;13363;52.772;-3.890;2023-04-03T11:46:56;1.40;;;1.30;;
25435;SDS011;13363;52.772;-3.890;2023-04-03T12:05:51;3.30;;;0.80;;
25435;SDS011;13363;52.772;-3.890;2023-04-03T12:21:23;3.40;;;1.00;;
25435;SDS011;13363;52.772;-3.890;2023-04-03T12:29:27;3.20;;;0.90;;
25435;SDS011;13363;52.772;-3.890;2023-04-03T12:32:30;2.27;;;1.30;;
25435;SDS011;13363;52.772;-3.890;2023-04-03T12:41:21;1.70;;;0.87;;
25435;SDS011;13363;52.772;-3.890;2023-04-03T12:46:46;0.80;;;0.80;;
25435;SDS011;13363;52.772;-3.890;2023-04-03T12:49:26;2.87;;;0.80;;
25435;SDS011;13363;52.772;-3.890;2023-04-03T12:51:56;1.70;;;1.20;;
25435;SDS011;13363;52.772;-3.890;2023-04-03T12:54:40;5.57;;;1.20;;
25435;SDS011;13363;52.772;-3.890;2023-04-03T12:57:16;0.77;;;0.70;;
25435;SDS011;13363;52.772;-3.890;2023-04-03T12:59:47;2.10;;;1.10;;
25435;SDS011;13363;52.772;-3.890;2023-04-03T13:02:26;1.77;;;0.80;;
25435;SDS011;13363;52.772;-3.890;2023-04-03T13:05:05;2.50;;;1.40;;
25435;SDS011;13363;52.772;-3.890;2023-04-03T13:07:35;3.13;;;1.20;;
25435;SDS011;13363;52.772;-3.890;2023-04-03T13:12:33;1.00;;;1.00;;
25435;SDS011;13363;52.772;-3.890;2023-04-03T13:15:14;1.60;;;1.40;;
25435;SDS011;13363;52.772;-3.890;2023-04-03T13:17:43;1.73;;;0.90;;
25435;SDS011;13363;52.772;-3.890;2023-04-03T13:20:26;1.50;;;1.13;;
25435;SDS011;13363;52.772;-3.890;2023-04-03T13:25:34;2.07;;;1.10;;
25435;SDS011;13363;52.772;-3.890;2023-04-03T13:28:02;1.50;;;1.20;;
25435;SDS011;13363;52.772;-3.890;2023-04-03T13:30:31;1.30;;;1.20;;
25435;SDS011;13363;52.772;-3.890;2023-04-03T13:33:01;2.97;;;1.37;;
25435;SDS011;13363;52.772;-3.890;2023-04-03T13:38:07;1.83;;;1.20;;
25435;SDS011;13363;52.772;-3.890;2023-04-03T13:40:52;1.70;;;1.20;;
25435;SDS011;13363;52.772;-3.890;2023-04-03T13:43:21;2.40;;;1.23;;
25435;SDS011;13363;52.772;-3.890;2023-04-03T13:48:40;2.10;;;0.90;;
25435;SDS011;13363;52.772;-3.890;2023-04-03T13:53:43;3.33;;;1.33;;
25435;SDS011;13363;52.772;-3.890;2023-04-03T13:56:34;1.57;;;1.30;;
25435;SDS011;13363;52.772;-3.890;2023-04-03T14:01:46;2.40;;;1.53;;
25435;SDS011;13363;52.772;-3.890;2023-04-03T14:04:26;1.93;;;1.23;;
25435;SDS011;13363;52.772;-3.890;2023-04-03T14:06:54;1.53;;;1.43;;
25435;SDS011;13363;52.772;-3.890;2023-04-03T14:09:21;2.43;;;1.57;;
25435;SDS011;13363;52.772;-3.890;2023-04-03T14:11:49;3.27;;;1.57;;
25435;SDS011;13363;52.772;-3.890;2023-04-03T14:14:22;2.63;;;1.23;;
25435;SDS011;13363;52.772;-3.890;2023-04-03T14:16:53;1.47;;;1.07;;
25435;SDS011;13363;52.772;-3.890;2023-04-03T14:19:22;2.57;;;1.47;;
25435;SDS011;13363;52.772;-3.890;2023-04-03T14:21:51;2.03;;;1.10;;
25435;SDS011;13363;52.772;-3.890;2023-04-03T14:24:18;1.13;;;1.13;;
25435;SDS011;13363;52.772;-3.890;2023-04-03T14:26:45;1.80;;;1.10;;
25435;SDS011;13363;52.772;-3.890;2023-04-03T14:29:11;2.23;;;1.47;;
25435;SDS011;13363;52.772;-3.890;2023-04-03T14:31:39;2.50;;;1.33;;
25435;SDS011;13363;52.772;-3.890;2023-04-03T14:34:06;1.50;;;1.20;;
25435;SDS011;13363;52.772;-3.890;2023-04-03T14:36:32;2.27;;;1.30;;
25435;SDS011;13363;52.772;-3.890;2023-04-03T14:38:59;1.43;;;1.33;;
25435;SDS011;13363;52.772;-3.890;2023-04-03T14:41:26;1.50;;;1.40;;
25435;SDS011;13363;52.772;-3.890;2023-04-03T14:43:52;4.00;;;1.50;;
25435;SDS011;13363;52.772;-3.890;2023-04-03T14:48:54;4.13;;;1.40;;
25435;SDS011;13363;52.772;-3.890;2023-04-03T14:51:20;3.73;;;1.30;;
25435;SDS011;13363;52.772;-3.890;2023-04-03T14:53:46;2.57;;;1.50;;
25435;SDS011;13363;52.772;-3.890;2023-04-03T14:56:23;2.07;;;1.40;;
25435;SDS011;13363;52.772;-3.890;2023-04-03T14:58:57;3.70;;;1.43;;
25435;SDS011;13363;52.772;-3.890;2023-04-03T15:01:24;1.33;;;1.07;;
25435;SDS011;13363;52.772;-3.890;2023-04-03T15:03:51;1.43;;;1.33;;
25435;SDS011;13363;52.772;-3.890;2023-04-03T15:06:17;3.53;;;1.40;;
25435;SDS011;13363;52.772;-3.890;2023-04-03T15:08:43;1.77;;;1.20;;
25435;SDS011;13363;52.772;-3.890;2023-04-03T15:11:12;2.13;;;1.47;;
25435;SDS011;13363;52.772;-3.890;2023-04-03T15:13:39;1.60;;;1.50;;
25435;SDS011;13363;52.772;-3.890;2023-04-03T15:16:12;1.40;;;1.30;;
25435;SDS011;13363;52.772;-3.890;2023-04-03T15:18:43;1.97;;;1.47;;
25435;SDS011;13363;52.772;-3.890;2023-04-03T15:21:10;2.27;;;1.40;;
25435;SDS011;13363;52.772;-3.890;2023-04-03T15:23:36;1.07;;;0.97;;
25435;SDS011;13363;52.772;-3.890;2023-04-03T15:26:02;1.27;;;1.17;;
25435;SDS011;13363;52.772;-3.890;2023-04-03T15:28:38;3.20;;;1.60;;
25435;SDS011;13363;52.772;-3.890;2023-04-03T15:31:06;1.87;;;1.40;;
25435;SDS011;13363;52.772;-3.890;2023-04-03T15:33:32;5.90;;;1.47;;
25435;SDS011;13363;52.772;-3.890;2023-04-03T15:35:59;1.73;;;0.90;;
25435;SDS011;13363;52.772;-3.890;2023-04-03T15:38:25;2.27;;;1.30;;
25435;SDS011;13363;52.772;-3.890;2023-04-03T15:40:51;3.80;;;1.40;;
25435;SDS011;13363;52.772;-3.890;2023-04-03T15:43:16;2.07;;;1.23;;
25435;SDS011;13363;52.772;-3.890;2023-04-03T15:45:42;2.00;;;1.50;;
25435;SDS011;13363;52.772;-3.890;2023-04-03T15:48:09;2.10;;;1.10;;
25435;SDS011;13363;52.772;-3.890;2023-04-03T15:50:35;2.20;;;1.30;;
25435;SDS011;13363;52.772;-3.890;2023-04-03T15:53:01;2.60;;;1.40;;
25435;SDS011;13363;52.772;-3.890;2023-04-03T15:55:28;2.03;;;1.13;;
25435;SDS011;13363;52.772;-3.890;2023-04-03T15:57:55;3.33;;;1.50;;
25435;SDS011;13363;52.772;-3.890;2023-04-03T16:00:22;2.27;;;1.50;;
25435;SDS011;13363;52.772;-3.890;2023-04-03T16:02:50;3.43;;;1.30;;
25435;SDS011;13363;52.772;-3.890;2023-04-03T16:05:22;2.43;;;1.33;;
25435;SDS011;13363;52.772;-3.890;2023-04-03T16:07:48;1.50;;;1.40;;
25435;SDS011;13363;52.772;-3.890;2023-04-03T16:10:15;2.27;;;1.77;;
25435;SDS011;13363;52.772;-3.890;2023-04-03T16:12:43;3.10;;;1.30;;
25435;SDS011;13363;52.772;-3.890;2023-04-03T16:15:09;2.13;;;1.47;;
25435;SDS011;13363;52.772;-3.890;2023-04-03T16:17:35;4.00;;;1.40;;
25435;SDS011;13363;52.772;-3.890;2023-04-03T16:20:03;3.07;;;1.50;;
25435;SDS011;13363;52.772;-3.890;2023-04-03T16:22:31;2.13;;;1.60;;
25435;SDS011;13363;52.772;-3.890;2023-04-03T16:24:58;2.90;;;1.67;;
25435;SDS011;13363;52.772;-3.890;2023-04-03T16:27:24;3.03;;;1.30;;
25435;SDS011;13363;52.772;-3.890;2023-04-03T16:29:53;2.53;;;1.60;;
25435;SDS011;13363;52.772;-3.890;2023-04-03T16:32:19;2.17;;;1.43;;
25435;SDS011;13363;52.772;-3.890;2023-04-03T16:34:46;1.80;;;1.43;;
25435;SDS011;13363;52.772;-3.890;2023-04-03T16:37:12;2.43;;;1.47;;
25435;SDS011;13363;52.772;-3.890;2023-04-03T16:39:38;1.70;;;1.50;;
25435;SDS011;13363;52.772;-3.890;2023-04-03T16:42:03;2.73;;;1.43;;
25435;SDS011;13363;52.772;-3.890;2023-04-03T16:44:29;1.57;;;1.47;;
25435;SDS011;13363;52.772;-3.890;2023-04-03T16:46:55;1.40;;;1.40;;